Station Historical Data
Daily Summary for April 29, 2017 Units:  Metric    English   Both
« Previous Day
Next Day »
Daily Weekly Monthly Yearly Custom
  High: Low: Average:
Temperature: 29.8 °C 19.9 °C 24.7 °C
Dew Point: 20.6 °C 18 °C 19.2 °C
Humidity: 91% 55% 73%
Wind Speed: 3.2km/h 0km/h 0.2km/h
Wind Gust: 11.3km/h - -
Wind- - NW
Pressure: 1020.5 hPa 1016.8 hPa -
Precipitation: 0 mm    
Historical Graphs
 
 
Tabular Data for April 29, 2017
Time Temperature Dew Point Pressure Wind Wind Speed Wind Gust Humidity Rainfall Rate (Hourly) Conditions
00:00 21.7 °C 18.6 °C 1018.5 hPa Calm     82% 0 mm SCT
00:15 21.7 °C 18.7 °C 1018.5 hPa Calm     83% 0 mm SCT
00:30 21.6 °C 18.6 °C 1018.5 hPa Calm     83% 0 mm SCT
00:45 21.4 °C 18.6 °C 1018.5 hPa Calm     84% 0 mm SCT
01:00 21.2 °C 18.6 °C 1018.5 hPa Calm     85% 0 mm SCT
01:15 21 °C 18.6 °C 1018.5 hPa Calm     86% 0 mm SCT
01:30 20.8 °C 18.3 °C 1018.5 hPa Calm     86% 0 mm SCT
01:45 20.6 °C 18.3 °C 1018.5 hPa Calm     87% 0 mm SCT
02:00 20.4 °C 18.2 °C 1018.5 hPa Calm     87% 0 mm SCT
02:15 20.2 °C 18.2 °C 1018.2 hPa Calm     88% 0 mm SCT
02:30 20.1 °C 18 °C 1018.2 hPa Calm     88% 0 mm SCT
02:45 20 °C 18.1 °C 1017.8 hPa Calm     89% 0 mm SCT
03:00 20 °C 18.1 °C 1017.8 hPa Calm     89% 0 mm SCT
03:15 20.3 °C 18.4 °C 1017.5 hPa Calm     89% 0 mm SCT
03:30 20.7 °C 18.6 °C 1017.2 hPa Calm     88% 0 mm SCT
03:45 20.6 °C 18.1 °C 1016.8 hPa Calm     86% 0 mm SCT
04:00 20.7 °C 18.2 °C 1016.8 hPa Calm     86% 0 mm SCT
04:15 20.7 °C 18.2 °C 1016.8 hPa Calm     86% 0 mm SCT
04:30 20.7 °C 18.2 °C 1017.2 hPa Calm     86% 0 mm SCT
04:45 20.7 °C 18.2 °C 1016.8 hPa Calm     86% 0 mm SCT
05:00 20.7 °C 18.2 °C 1017.2 hPa Calm     86% 0 mm SCT
05:15 20.7 °C 18.2 °C 1017.5 hPa Calm     86% 0 mm SCT
05:30 20.7 °C 18.2 °C 1017.8 hPa Calm     86% 0 mm SCT
05:45 20.7 °C 18.2 °C 1018.2 hPa Calm     86% 0 mm SCT
06:00 20.7 °C 18.2 °C 1018.5 hPa Calm     86% 0 mm SCT
06:15 20.7 °C 18.2 °C 1018.8 hPa Calm     86% 0 mm SCT
06:30 20.7 °C 18.2 °C 1018.8 hPa Calm     86% 0 mm SCT
06:45 20.7 °C 18.2 °C 1019.2 hPa Calm     86% 0 mm SCT
07:00 20.7 °C 18.2 °C 1019.5 hPa Calm     86% 0 mm SCT
07:15 20.7 °C 18.2 °C 1019.9 hPa Calm     86% 0 mm SCT
07:30 20.7 °C 18.2 °C 1020.2 hPa Calm     86% 0 mm SCT
07:45 20.7 °C 18.2 °C 1020.2 hPa Calm     86% 0 mm SCT
08:00 19.9 °C 18.3 °C 1020.2 hPa Calm     91% 0 mm SCT
08:15 20.4 °C 18.7 °C 1020.2 hPa Calm   1.6 km/h 90% 0 mm SCT
08:30 21 °C 19.1 °C 1020.5 hPa Calm   1.6 km/h 89% 0 mm SCT
08:45 21.5 °C 19.2 °C 1020.2 hPa Calm   3.2 km/h 87% 0 mm SCT
09:00 21.7 °C 19.3 °C 1020.5 hPa Calm   1.6 km/h 86% 0 mm SCT
09:15 22.1 °C 19.4 °C 1020.5 hPa Calm   1.6 km/h 85% 0 mm SCT
09:30 22.6 °C 19.7 °C 1020.5 hPa Calm   1.6 km/h 84% 0 mm SCT
09:45 23.1 °C 19.8 °C 1020.5 hPa Calm   1.6 km/h 82% 0 mm SCT
10:00 24 °C 20.2 °C 1020.5 hPa Calm   1.6 km/h 79% 0 mm SCT
10:15 25.1 °C 20.2 °C 1020.2 hPa Calm   1.6 km/h 74% 0 mm SCT
10:30 25.9 °C 19.3 °C 1020.5 hPa Calm   3.2 km/h 67% 0 mm SCT
10:45 26.5 °C 19.1 °C 1020.5 hPa Calm   1.6 km/h 64% 0 mm SCT
11:00 26.6 °C 19.5 °C 1020.5 hPa Calm   3.2 km/h 65% 0 mm SCT
11:15 26.4 °C 19.5 °C 1020.5 hPa Calm   3.2 km/h 66% 0 mm SCT
11:30 27 °C 19.8 °C 1020.5 hPa Calm   3.2 km/h 65% 0 mm SCT
11:45 27.6 °C 20.4 °C 1020.5 hPa Calm   1.6 km/h 65% 0 mm SCT
12:00 28.2 °C 20.4 °C 1020.5 hPa Calm   4.8 km/h 63% 0 mm SCT
12:15 28.7 °C 20.1 °C 1020.2 hPa Calm   4.8 km/h 60% 0 mm SCT
12:30 29.3 °C 20.2 °C 1020.2 hPa Calm   3.2 km/h 58% 0 mm SCT
12:45 29.6 °C 19.8 °C 1020.2 hPa Calm   3.2 km/h 56% 0 mm SCT
13:00 29.3 °C 19.4 °C 1020.2 hPa Calm   1.6 km/h 55% 0 mm SCT
13:15 29.3 °C 20.2 °C 1019.9 hPa Calm   3.2 km/h 58% 0 mm SCT
13:30 29.7 °C 19.7 °C 1019.5 hPa NW 1.6 km/h 3.2 km/h 55% 0 mm SCT
13:45 29.8 °C 20.1 °C 1019.5 hPa Calm   1.6 km/h 56% 0 mm SCT
14:00 29.4 °C 20.1 °C 1019.2 hPa Calm   9.7 km/h 57% 0 mm SCT
14:15 29.7 °C 20.3 °C 1019.5 hPa Calm   4.8 km/h 57% 0 mm SCT
14:30 29.2 °C 20.1 °C 1019.5 hPa Calm   1.6 km/h 58% 0 mm SCT
14:45 29.3 °C 19.9 °C 1019.2 hPa NW 1.6 km/h 4.8 km/h 57% 0 mm SCT
15:00 28.9 °C 20.4 °C 1019.2 hPa Calm   4.8 km/h 60% 0 mm SCT
15:15 29.4 °C 20.6 °C 1018.8 hPa Calm   3.2 km/h 59% 0 mm SCT
15:30 29.2 °C 20.4 °C 1018.5 hPa NW 1.6 km/h 3.2 km/h 59% 0 mm SCT
15:45 29.2 °C 20.4 °C 1018.2 hPa Calm   3.2 km/h 59% 0 mm SCT
16:00 29.6 °C 20.2 °C 1018.2 hPa Calm   3.2 km/h 57% 0 mm SCT
16:15 29.7 °C 19.7 °C 1018.2 hPa NW 3.2 km/h 9.7 km/h 55% 0 mm SCT
16:30 29.4 °C 20 °C 1017.8 hPa Calm   11.3 km/h 57% 0 mm SCT
16:45 29.6 °C 19.9 °C 1017.8 hPa Calm   3.2 km/h 56% 0 mm SCT
17:00 29.3 °C 19.7 °C 1017.5 hPa Calm   3.2 km/h 56% 0 mm SCT
17:15 28.7 °C 20.1 °C 1017.5 hPa Calm   3.2 km/h 60% 0 mm SCT
17:30 28.9 °C 20.1 °C 1017.2 hPa Calm   3.2 km/h 59% 0 mm SCT
17:45 28.8 °C 19.9 °C 1017.2 hPa Calm   3.2 km/h 59% 0 mm SCT
18:00 28.8 °C 19.4 °C 1016.8 hPa Calm   3.2 km/h 57% 0 mm SCT
18:15 28.6 °C 19.5 °C 1016.8 hPa Calm   3.2 km/h 58% 0 mm SCT
18:30 28.4 °C 19.1 °C 1016.8 hPa Calm   3.2 km/h 57% 0 mm SCT
18:45 28.4 °C 19.1 °C 1016.8 hPa Calm   3.2 km/h 57% 0 mm SCT
19:00 28.3 °C 18.7 °C 1016.8 hPa Calm   3.2 km/h 56% 0 mm SCT
19:15 27.9 °C 18.7 °C 1017.2 hPa Calm   1.6 km/h 57% 0 mm SCT
19:30 27.8 °C 18.5 °C 1017.2 hPa Calm   3.2 km/h 57% 0 mm SCT
20:00 27.4 °C 18.4 °C 1017.5 hPa Calm   11.3 km/h 58% 0 mm SCT
20:15 27.1 °C 18.4 °C 1017.5 hPa Calm   1.6 km/h 59% 0 mm SCT
20:30 26.8 °C 18.6 °C 1017.8 hPa Calm     61% 0 mm SCT
20:45 26.4 °C 18.8 °C 1017.8 hPa Calm     63% 0 mm SCT
21:00 26.1 °C 19.2 °C 1017.8 hPa Calm     66% 0 mm SCT
21:15 25.8 °C 19.5 °C 1018.2 hPa Calm     68% 0 mm SCT
21:30 25.6 °C 19.5 °C 1018.2 hPa Calm     69% 0 mm SCT
21:45 25.4 °C 19.6 °C 1018.2 hPa Calm     70% 0 mm SCT
22:00 25.4 °C 19.7 °C 1018.2 hPa Calm     71% 0 mm SCT
22:15 25.3 °C 19.6 °C 1018.5 hPa Calm     71% 0 mm SCT
22:30 24.9 °C 19.7 °C 1018.5 hPa Calm     73% 0 mm SCT
22:45 24.6 °C 19.7 °C 1018.5 hPa Calm     74% 0 mm SCT
23:00 24.3 °C 19.6 °C 1018.5 hPa Calm     75% 0 mm SCT
23:15 24 °C 19.5 °C 1018.5 hPa Calm     76% 0 mm SCT
23:30 23.7 °C 19.4 °C 1018.5 hPa Calm     77% 0 mm SCT
23:45 23.5 °C 19.2 °C 1018.5 hPa Calm     77% 0 mm SCT
Piedmont Bend
Compliments of Weather Underground - 4 mb